createdAt,value
2018-08-03T00:02:16.730Z,4.80
2018-08-03T00:04:45.265Z,4.70
2018-08-03T00:07:13.811Z,4.83
2018-08-03T00:09:42.315Z,4.10
2018-08-03T00:12:10.834Z,4.17
2018-08-03T00:14:39.409Z,4.50
2018-08-03T00:17:07.942Z,4.20
2018-08-03T00:19:36.419Z,4.47
2018-08-03T00:22:04.944Z,4.73
2018-08-03T00:24:33.449Z,4.37
2018-08-03T00:27:02.025Z,4.90
2018-08-03T00:29:30.534Z,4.53
2018-08-03T00:31:59.101Z,4.80
2018-08-03T00:34:27.619Z,3.97
2018-08-03T00:36:56.123Z,4.07
2018-08-03T00:39:24.666Z,4.60
2018-08-03T00:41:53.160Z,4.57
2018-08-03T00:44:21.777Z,4.40
2018-08-03T00:46:50.265Z,4.50
2018-08-03T00:49:18.785Z,4.50
2018-08-03T00:51:47.300Z,4.77
2018-08-03T00:54:15.872Z,4.80
2018-08-03T00:56:44.359Z,3.97
2018-08-03T00:59:12.881Z,4.90
2018-08-03T01:01:41.392Z,4.70
2018-08-03T01:04:09.925Z,4.77
2018-08-03T01:06:38.420Z,4.37
2018-08-03T01:09:10.133Z,4.10
2018-08-03T01:11:38.626Z,4.60
2018-08-03T01:14:07.737Z,5.63
2018-08-03T01:16:40.116Z,4.87
2018-08-03T01:19:10.205Z,4.77
2018-08-03T01:21:38.685Z,4.40
2018-08-03T01:24:07.556Z,4.13
2018-08-03T01:26:36.093Z,4.40
2018-08-03T01:29:04.761Z,4.63
2018-08-03T01:31:33.273Z,4.50
2018-08-03T01:36:52.339Z,4.30
2018-08-03T01:39:20.525Z,4.37
2018-08-03T01:41:49.026Z,4.00
2018-08-03T01:44:17.565Z,4.33
2018-08-03T01:46:46.097Z,4.60
2018-08-03T01:49:14.587Z,4.70
2018-08-03T01:51:43.113Z,5.13
2018-08-03T01:54:11.620Z,4.70
2018-08-03T01:56:40.150Z,4.43
2018-08-03T01:59:08.972Z,4.00
2018-08-03T02:01:37.478Z,4.70
2018-08-03T02:04:06.050Z,5.90
2018-08-03T02:06:34.597Z,4.50
2018-08-03T02:09:03.300Z,4.60
2018-08-03T02:11:31.840Z,4.93
2018-08-03T02:14:00.445Z,4.70
2018-08-03T02:16:28.996Z,5.00
2018-08-03T02:18:57.545Z,5.07
2018-08-03T02:21:26.131Z,4.80
2018-08-03T02:23:54.625Z,5.67
2018-08-03T02:26:23.141Z,4.87
2018-08-03T02:28:51.670Z,4.60
2018-08-03T02:31:20.288Z,5.20
2018-08-03T02:33:48.786Z,5.37
2018-08-03T02:36:17.310Z,5.60
2018-08-03T02:38:45.853Z,5.70
2018-08-03T02:41:14.328Z,4.90
2018-08-03T02:43:42.910Z,5.30
2018-08-03T02:46:11.413Z,5.80
2018-08-03T02:48:39.945Z,5.10
2018-08-03T02:51:08.469Z,4.77
2018-08-03T02:53:36.984Z,5.20
2018-08-03T02:56:05.494Z,5.07
2018-08-03T02:58:34.046Z,5.00
2018-08-03T03:01:02.525Z,5.00
2018-08-03T03:03:31.078Z,6.00
2018-08-03T03:05:59.593Z,5.20
2018-08-03T03:08:28.121Z,5.40
2018-08-03T03:10:56.619Z,5.30
2018-08-03T03:13:25.150Z,5.90
2018-08-03T03:15:53.621Z,4.80
2018-08-03T03:18:22.141Z,5.50
2018-08-03T03:20:51.212Z,5.33
2018-08-03T03:23:19.757Z,5.90
2018-08-03T03:25:48.270Z,5.50
2018-08-03T03:28:16.780Z,5.30
2018-08-03T03:30:45.285Z,4.67
2018-08-03T03:33:13.806Z,5.23
2018-08-03T03:35:42.345Z,7.03
2018-08-03T03:38:10.885Z,5.30
2018-08-03T03:40:39.490Z,5.60
2018-08-03T03:43:08.042Z,5.90
2018-08-03T03:45:36.686Z,6.30
2018-08-03T03:48:05.265Z,5.47
2018-08-03T03:50:33.793Z,6.07
2018-08-03T03:53:02.290Z,5.17
2018-08-03T03:55:30.808Z,5.63
2018-08-03T03:57:59.367Z,6.77
2018-08-03T04:00:28.021Z,5.33
2018-08-03T04:02:56.536Z,6.03
2018-08-03T04:05:25.078Z,6.40
2018-08-03T04:07:53.592Z,6.33
2018-08-03T04:10:22.140Z,5.70
2018-08-03T04:12:50.623Z,6.23
2018-08-03T04:15:19.149Z,5.97
2018-08-03T04:17:47.669Z,6.20
2018-08-03T04:20:15.886Z,6.27
2018-08-03T04:22:44.369Z,5.50
2018-08-03T04:25:12.849Z,5.77
2018-08-03T04:27:41.009Z,5.87
2018-08-03T04:30:09.556Z,5.80
2018-08-03T04:32:38.106Z,6.80
2018-08-03T04:35:06.292Z,5.80
2018-08-03T04:37:34.501Z,6.60
2018-08-03T04:40:02.675Z,5.07
2018-08-03T04:42:31.287Z,5.37
2018-08-03T04:44:59.773Z,6.30
2018-08-03T04:47:28.325Z,6.00
2018-08-03T04:49:56.825Z,6.20
2018-08-03T04:52:25.363Z,7.83
2018-08-03T04:54:53.938Z,6.67
2018-08-03T04:57:22.182Z,7.43
2018-08-03T04:59:50.661Z,6.40
2018-08-03T05:02:19.253Z,6.83
2018-08-03T05:04:47.842Z,6.53
2018-08-03T05:07:16.354Z,6.20
2018-08-03T05:09:44.919Z,6.87
2018-08-03T05:12:13.531Z,5.90
2018-08-03T05:14:42.022Z,7.07
2018-08-03T05:17:10.577Z,6.53
2018-08-03T05:19:39.104Z,6.30
2018-08-03T05:22:07.609Z,5.40
2018-08-03T05:24:35.777Z,6.27
2018-08-03T05:27:03.937Z,6.70
2018-08-03T05:29:32.482Z,6.23
2018-08-03T05:32:01.012Z,6.83
2018-08-03T05:34:29.582Z,6.93
2018-08-03T05:36:58.094Z,6.33
2018-08-03T05:39:26.663Z,6.60
2018-08-03T05:41:55.225Z,6.70
2018-08-03T05:44:23.756Z,6.87
2018-08-03T05:46:52.298Z,6.97
2018-08-03T05:49:20.809Z,7.73
2018-08-03T05:51:49.384Z,7.57
2018-08-03T05:54:17.913Z,6.83
2018-08-03T05:56:46.453Z,7.00
2018-08-03T05:59:14.961Z,7.57
2018-08-03T06:01:43.513Z,7.20
2018-08-03T06:04:12.096Z,7.60
2018-08-03T06:06:40.698Z,8.10
2018-08-03T06:09:10.829Z,6.90
2018-08-03T06:11:39.378Z,7.07
2018-08-03T06:14:08.629Z,5.63
2018-08-03T06:16:37.262Z,6.20
2018-08-03T06:19:05.962Z,5.93
2018-08-03T06:21:34.558Z,6.03
2018-08-03T06:24:03.146Z,6.23
2018-08-03T06:26:31.641Z,6.27
2018-08-03T06:29:00.167Z,6.87
2018-08-03T06:31:28.761Z,6.63
2018-08-03T06:33:57.296Z,5.97
2018-08-03T06:36:25.813Z,6.57
2018-08-03T06:38:54.356Z,5.63
2018-08-03T06:41:22.881Z,6.10
2018-08-03T06:43:51.480Z,6.20
2018-08-03T06:46:20.062Z,7.57
2018-08-03T06:48:48.581Z,6.20
2018-08-03T06:51:17.157Z,6.10
2018-08-03T06:53:46.033Z,6.80
2018-08-03T06:56:14.550Z,6.53
2018-08-03T06:58:43.037Z,6.53
2018-08-03T07:01:11.709Z,6.50
2018-08-03T07:03:40.201Z,7.37
2018-08-03T07:06:08.682Z,7.97
2018-08-03T07:08:36.992Z,7.10
2018-08-03T07:11:05.430Z,6.90
2018-08-03T07:13:33.988Z,6.27
2018-08-03T07:16:02.487Z,6.60
2018-08-03T07:18:31.016Z,6.90
2018-08-03T07:20:59.535Z,8.60
2018-08-03T07:23:28.077Z,6.93
2018-08-03T07:25:56.601Z,5.80
2018-08-03T07:28:25.125Z,8.00
2018-08-03T07:30:53.605Z,6.87
2018-08-03T07:33:22.197Z,7.90
2018-08-03T07:35:50.671Z,7.30
2018-08-03T07:38:19.197Z,6.90
2018-08-03T07:40:47.668Z,8.10
2018-08-03T07:43:16.310Z,6.83
2018-08-03T07:45:44.768Z,8.33
2018-08-03T07:48:13.321Z,7.27
2018-08-03T07:50:41.841Z,7.10
2018-08-03T07:53:10.428Z,7.40
2018-08-03T07:55:38.941Z,6.93
2018-08-03T07:58:07.466Z,6.47
2018-08-03T08:00:36.009Z,8.23
2018-08-03T08:03:04.581Z,8.47
2018-08-03T08:05:33.193Z,6.77
2018-08-03T08:08:01.706Z,7.10
2018-08-03T08:10:30.212Z,7.37
2018-08-03T08:12:58.824Z,6.60
2018-08-03T08:15:27.372Z,7.07
2018-08-03T08:17:56.057Z,7.80
2018-08-03T08:20:24.597Z,7.60
2018-08-03T08:22:53.129Z,7.17
2018-08-03T08:25:21.281Z,6.30
2018-08-03T08:27:49.821Z,6.93
2018-08-03T08:30:18.297Z,7.70
2018-08-03T08:32:46.799Z,7.62
2018-08-03T08:35:15.329Z,7.07
2018-08-03T08:37:44.053Z,6.77
2018-08-03T08:40:12.537Z,6.53
2018-08-03T08:42:41.087Z,6.60
2018-08-03T08:45:09.629Z,5.80
2018-08-03T08:47:38.233Z,7.50
2018-08-03T08:50:07.761Z,6.57
2018-08-03T08:52:36.289Z,6.25
2018-08-03T08:55:04.882Z,6.22
2018-08-03T08:57:33.599Z,6.95
2018-08-03T09:00:02.196Z,7.53
2018-08-03T09:02:30.692Z,6.58
2018-08-03T09:04:59.257Z,6.62
2018-08-03T09:07:27.813Z,6.53
2018-08-03T09:09:56.329Z,7.10
2018-08-03T09:12:24.809Z,7.00
2018-08-03T09:14:53.335Z,6.10
2018-08-03T09:17:22.762Z,6.70
2018-08-03T09:19:51.542Z,6.62
2018-08-03T09:22:20.313Z,6.10
2018-08-03T09:24:48.847Z,6.62
2018-08-03T09:27:17.329Z,6.60
2018-08-03T09:29:45.904Z,6.22
2018-08-03T09:32:14.507Z,5.62
2018-08-03T09:34:43.062Z,7.10
2018-08-03T09:37:11.606Z,6.85
2018-08-03T09:39:40.132Z,6.42
2018-08-03T09:42:08.680Z,6.05
2018-08-03T09:44:37.234Z,6.05
2018-08-03T09:47:05.792Z,5.87
2018-08-03T09:49:34.295Z,5.85
2018-08-03T09:52:02.840Z,6.55
2018-08-03T09:54:31.350Z,5.47
2018-08-03T09:56:59.877Z,5.95
2018-08-03T09:59:28.397Z,6.10
2018-08-03T10:01:56.926Z,5.60
2018-08-03T10:04:25.460Z,5.78
2018-08-03T10:06:53.941Z,6.03
2018-08-03T10:09:22.513Z,5.25
2018-08-03T10:11:51.027Z,6.42
2018-08-03T10:14:19.554Z,5.55
2018-08-03T10:16:48.053Z,5.20
2018-08-03T10:19:16.636Z,5.62
2018-08-03T10:27:41.767Z,5.03
2018-08-03T10:30:10.390Z,4.97
2018-08-03T10:32:39.034Z,5.78
2018-08-03T10:35:08.101Z,5.30
2018-08-03T10:37:36.735Z,5.85
2018-08-03T10:40:05.498Z,4.85
2018-08-03T10:42:34.132Z,4.35
2018-08-03T10:45:02.843Z,5.05
2018-08-03T10:47:31.626Z,4.58
2018-08-03T10:50:00.387Z,5.10
2018-08-03T10:52:29.036Z,4.45
2018-08-03T10:54:57.798Z,5.03
2018-08-03T10:57:26.641Z,4.30
2018-08-03T10:59:55.739Z,3.70
2018-08-03T11:02:24.395Z,4.10
2018-08-03T11:04:53.147Z,4.03
2018-08-03T11:07:21.781Z,4.00
2018-08-03T11:09:50.464Z,3.83
2018-08-03T11:12:19.074Z,4.07
2018-08-03T11:14:47.941Z,5.10
2018-08-03T11:17:16.641Z,3.90
2018-08-03T11:19:45.324Z,4.20
2018-08-03T11:22:13.944Z,4.00
2018-08-03T11:24:42.586Z,4.30
2018-08-03T11:27:11.197Z,3.90
2018-08-03T11:29:39.846Z,4.50
2018-08-03T11:32:08.777Z,3.80
2018-08-03T11:34:37.459Z,3.97
2018-08-03T11:37:06.144Z,4.00
2018-08-03T11:39:34.726Z,3.97
2018-08-03T11:42:03.367Z,4.27
2018-08-03T11:44:32.008Z,3.80
2018-08-03T11:47:00.635Z,4.40
2018-08-03T11:49:29.267Z,4.30
2018-08-03T11:51:57.913Z,4.07
2018-08-03T11:54:26.497Z,4.17
2018-08-03T11:56:55.177Z,3.60
2018-08-03T11:59:23.784Z,3.53
2018-08-03T12:01:52.529Z,3.93
2018-08-03T12:04:21.099Z,4.40
2018-08-03T12:06:49.850Z,3.73
2018-08-03T12:09:18.492Z,4.80
2018-08-03T12:11:47.085Z,4.30
2018-08-03T12:14:15.733Z,4.17
2018-08-03T12:16:44.372Z,4.10
2018-08-03T12:19:13.073Z,4.03
2018-08-03T12:21:41.784Z,4.13
2018-08-03T12:24:10.409Z,4.23
2018-08-03T12:26:39.014Z,4.07
2018-08-03T12:29:07.747Z,4.20
2018-08-03T12:31:36.367Z,4.47
2018-08-03T12:34:05.086Z,4.13
2018-08-03T12:36:33.813Z,3.80
2018-08-03T12:39:02.499Z,4.67
2018-08-03T12:41:31.184Z,4.47
2018-08-03T12:43:59.851Z,3.90
2018-08-03T12:46:28.503Z,4.13
2018-08-03T12:48:57.120Z,4.30
2018-08-03T12:51:25.769Z,4.23
2018-08-03T12:53:54.481Z,4.30
2018-08-03T12:56:23.173Z,3.77
2018-08-03T12:58:52.546Z,3.93
2018-08-03T13:01:21.501Z,4.13
2018-08-03T13:03:50.680Z,4.30
2018-08-03T13:06:19.327Z,3.93
2018-08-03T13:08:48.029Z,3.73
2018-08-03T13:11:16.621Z,4.73
2018-08-03T13:13:45.297Z,4.13
2018-08-03T13:16:13.913Z,4.50
2018-08-03T13:18:42.557Z,4.47
2018-08-03T13:21:22.319Z,4.20
2018-08-03T13:23:52.136Z,4.00
2018-08-03T13:26:20.745Z,4.10
2018-08-03T13:28:50.146Z,4.03
2018-08-03T13:31:18.761Z,3.60
2018-08-03T13:33:47.448Z,3.80
2018-08-03T13:36:16.399Z,3.80
2018-08-03T13:38:45.755Z,3.30
2018-08-03T13:41:14.805Z,3.83
2018-08-03T13:43:43.524Z,3.40
2018-08-03T13:46:12.324Z,4.60
2018-08-03T13:48:41.254Z,4.00
2018-08-03T13:51:09.944Z,4.00
2018-08-03T13:53:38.696Z,4.20
2018-08-03T13:56:10.645Z,3.43
2018-08-03T13:58:39.307Z,4.37
2018-08-03T14:01:19.205Z,3.83
2018-08-03T14:03:47.912Z,3.90
2018-08-03T14:06:16.572Z,4.17
2018-08-03T14:08:46.333Z,3.60
2018-08-03T14:11:15.957Z,3.80
2018-08-03T14:13:44.845Z,3.73
2018-08-03T14:16:13.777Z,4.03
2018-08-03T14:18:43.194Z,4.23
2018-08-03T14:21:11.826Z,4.30
2018-08-03T14:23:40.406Z,3.83
2018-08-03T14:26:09.089Z,4.03
2018-08-03T14:28:37.715Z,3.93
2018-08-03T14:31:06.416Z,3.97
2018-08-03T14:33:35.090Z,4.22
2018-08-03T14:36:03.711Z,4.23
2018-08-03T14:38:32.353Z,4.03
2018-08-03T14:41:00.981Z,3.67
2018-08-03T14:43:29.627Z,3.43
2018-08-03T14:45:58.564Z,3.20
2018-08-03T14:48:27.398Z,3.73
2018-08-03T14:50:56.037Z,3.93
2018-08-03T14:53:24.633Z,4.00
2018-08-03T14:55:53.264Z,3.97
2018-08-03T14:58:21.898Z,3.50
2018-08-03T15:00:50.586Z,3.58
2018-08-03T15:03:19.229Z,3.30
2018-08-03T15:05:47.849Z,4.00
2018-08-03T15:08:16.521Z,3.60
2018-08-03T15:10:45.181Z,3.57
2018-08-03T15:13:13.754Z,3.60
2018-08-03T15:15:42.416Z,3.03
2018-08-03T15:18:12.065Z,3.43
2018-08-03T15:20:40.715Z,3.90
2018-08-03T15:23:09.422Z,3.07
2018-08-03T15:25:38.152Z,3.33
2018-08-03T15:28:06.797Z,4.17
2018-08-03T15:30:35.410Z,3.33
2018-08-03T15:33:04.109Z,3.13
2018-08-03T15:35:32.785Z,3.40
2018-08-03T15:38:01.445Z,3.10
2018-08-03T15:40:30.106Z,3.13
2018-08-03T15:42:58.804Z,3.30
2018-08-03T15:45:27.449Z,3.37
2018-08-03T15:47:56.098Z,3.63
2018-08-03T15:50:24.729Z,3.47
2018-08-03T15:52:53.394Z,3.50
2018-08-03T15:55:21.972Z,3.43
2018-08-03T15:57:50.614Z,3.33
2018-08-03T16:00:19.265Z,3.20
2018-08-03T16:02:48.028Z,3.83
2018-08-03T16:05:16.618Z,3.60
2018-08-03T16:07:45.232Z,3.20
2018-08-03T16:10:13.856Z,3.73
2018-08-03T16:12:42.452Z,3.40
2018-08-03T16:15:13.530Z,3.60
2018-08-03T16:17:42.322Z,4.37
2018-08-03T16:20:11.176Z,3.27
2018-08-03T16:22:39.865Z,3.40
2018-08-03T16:25:08.562Z,3.80
2018-08-03T16:27:37.166Z,3.70
2018-08-03T16:30:07.381Z,3.90
2018-08-03T16:32:36.032Z,3.50
2018-08-03T16:35:04.862Z,3.60
2018-08-03T16:37:33.582Z,4.10
2018-08-03T16:40:02.262Z,3.23
2018-08-03T16:42:30.905Z,3.10
2018-08-03T16:44:59.563Z,3.63
2018-08-03T16:47:28.222Z,3.73
2018-08-03T16:49:56.870Z,3.60
2018-08-03T16:52:25.594Z,3.10
2018-08-03T16:54:53.857Z,3.40
2018-08-03T16:57:22.591Z,4.37
2018-08-03T16:59:51.213Z,4.30
2018-08-03T17:02:19.873Z,4.33
2018-08-03T17:04:48.707Z,4.07
2018-08-03T17:07:17.472Z,4.33
2018-08-03T17:09:46.087Z,4.60
2018-08-03T17:12:14.787Z,4.07
2018-08-03T17:14:43.604Z,4.77
2018-08-03T17:17:12.264Z,4.53
2018-08-03T17:19:40.905Z,4.80
2018-08-03T17:22:09.558Z,4.70
2018-08-03T17:24:38.186Z,4.57
2018-08-03T17:27:06.893Z,5.17
2018-08-03T17:29:35.498Z,4.23
2018-08-03T17:32:05.158Z,4.70
2018-08-03T17:34:33.917Z,4.67
2018-08-03T17:37:02.554Z,4.73
2018-08-03T17:39:31.225Z,5.13
2018-08-03T17:41:59.824Z,4.87
2018-08-03T17:44:28.513Z,4.80
2018-08-03T17:46:57.158Z,4.77
2018-08-03T17:49:25.815Z,4.53
2018-08-03T17:51:54.484Z,4.30
2018-08-03T17:54:23.152Z,4.30
2018-08-03T17:56:51.738Z,4.40
2018-08-03T17:59:20.435Z,4.47
2018-08-03T18:01:49.085Z,5.00
2018-08-03T18:04:17.706Z,4.63
2018-08-03T18:06:46.369Z,4.67
2018-08-03T18:09:15.058Z,4.37
2018-08-03T18:11:43.699Z,4.60
2018-08-03T18:14:12.360Z,4.70
2018-08-03T18:16:41.639Z,4.90
2018-08-03T18:19:10.290Z,4.33
2018-08-03T18:21:38.916Z,4.53
2018-08-03T18:24:07.625Z,4.60
2018-08-03T18:26:36.262Z,4.60
2018-08-03T18:29:04.914Z,5.13
2018-08-03T18:31:33.569Z,4.87
2018-08-03T18:34:02.189Z,4.40
2018-08-03T18:36:30.856Z,5.23
2018-08-03T18:38:59.441Z,4.83
2018-08-03T18:41:28.090Z,5.30
2018-08-03T18:43:56.834Z,4.80
2018-08-03T18:46:25.538Z,5.20
2018-08-03T18:48:54.268Z,5.43
2018-08-03T18:51:22.997Z,5.40
2018-08-03T18:53:51.607Z,4.60
2018-08-03T18:56:20.300Z,5.50
2018-08-03T18:58:48.930Z,5.07
2018-08-03T19:01:17.577Z,5.30
2018-08-03T19:03:46.170Z,5.10
2018-08-03T19:06:14.873Z,4.90
2018-08-03T19:08:43.442Z,5.20
2018-08-03T19:11:12.127Z,5.77
2018-08-03T19:13:40.714Z,5.50
2018-08-03T19:16:09.357Z,5.70
2018-08-03T19:18:38.302Z,5.27
2018-08-03T19:21:06.930Z,5.40
2018-08-03T19:23:35.622Z,5.37
2018-08-03T19:26:04.267Z,5.37
2018-08-03T19:28:32.890Z,4.73
2018-08-03T19:31:01.551Z,5.37
2018-08-03T19:33:30.206Z,5.53
2018-08-03T19:35:58.813Z,5.77
2018-08-03T19:38:27.500Z,5.60
2018-08-03T19:40:56.185Z,5.07
2018-08-03T19:43:24.863Z,5.10
2018-08-03T19:45:53.809Z,4.97
2018-08-03T19:48:22.469Z,4.60
2018-08-03T19:50:51.101Z,4.17
2018-08-03T19:53:19.822Z,4.97
2018-08-03T19:55:48.502Z,4.37
2018-08-03T19:58:17.275Z,5.10
2018-08-03T20:00:45.897Z,4.50
2018-08-03T20:03:14.592Z,5.10
2018-08-03T20:05:43.193Z,4.77
2018-08-03T20:08:12.121Z,6.20
2018-08-03T20:10:40.766Z,5.63
2018-08-03T20:13:09.449Z,5.30
2018-08-03T20:15:38.097Z,5.07
2018-08-03T20:18:06.770Z,5.60
2018-08-03T20:20:35.417Z,5.40
2018-08-03T20:23:04.200Z,4.97
2018-08-03T20:25:32.931Z,4.90
2018-08-03T20:28:01.743Z,5.37
2018-08-03T20:30:30.607Z,5.43
2018-08-03T20:32:59.297Z,4.80
2018-08-03T20:35:28.046Z,5.43
2018-08-03T20:37:56.950Z,5.50
2018-08-03T20:40:25.814Z,5.37
2018-08-03T20:42:54.460Z,5.93
2018-08-03T20:45:23.355Z,5.80
2018-08-03T20:47:52.017Z,5.17
2018-08-03T20:50:20.786Z,5.47
2018-08-03T20:52:49.699Z,5.07
2018-08-03T20:55:18.515Z,4.77
2018-08-03T20:57:47.421Z,5.03
2018-08-03T21:00:16.276Z,5.17
2018-08-03T21:02:45.483Z,5.40
2018-08-03T21:05:14.215Z,4.70
2018-08-03T21:07:42.990Z,4.47
2018-08-03T21:10:14.754Z,5.70
2018-08-03T21:12:43.707Z,5.10
2018-08-03T21:15:12.747Z,5.53
2018-08-03T21:17:41.176Z,4.53
2018-08-03T21:20:10.593Z,4.87
2018-08-03T21:22:40.078Z,5.37
2018-08-03T21:25:13.006Z,5.00
2018-08-03T21:27:41.704Z,5.80
2018-08-03T21:30:11.555Z,4.57
2018-08-03T21:32:40.316Z,5.27
2018-08-03T21:35:09.122Z,5.33
2018-08-03T21:37:37.893Z,5.20
2018-08-03T21:40:07.197Z,5.37
2018-08-03T21:42:36.444Z,5.13
2018-08-03T21:45:06.156Z,5.50
2018-08-03T21:47:35.006Z,5.00
2018-08-03T21:50:04.953Z,5.33
2018-08-03T21:52:38.726Z,5.17
2018-08-03T21:55:07.485Z,5.40
2018-08-03T21:57:36.850Z,4.80
2018-08-03T22:00:09.918Z,5.37
2018-08-03T22:02:38.309Z,5.03
2018-08-03T22:05:10.341Z,5.93
2018-08-03T22:07:40.316Z,5.53
2018-08-03T22:10:09.094Z,4.70
2018-08-03T22:12:37.981Z,5.00
2018-08-03T22:15:10.203Z,5.13
2018-08-03T22:17:40.208Z,5.77
2018-08-03T22:20:09.418Z,5.47
2018-08-03T22:22:38.308Z,4.97
2018-08-03T22:25:08.501Z,5.30
2018-08-03T22:27:37.629Z,4.30
2018-08-03T22:30:06.861Z,4.87
2018-08-03T22:32:35.711Z,4.90
2018-08-03T22:35:05.555Z,6.07
2018-08-03T22:37:34.577Z,5.03
2018-08-03T22:40:03.338Z,5.90
2018-08-03T22:42:31.997Z,5.60
2018-08-03T22:45:00.736Z,5.73
2018-08-03T22:47:29.461Z,4.50
2018-08-03T22:49:58.077Z,4.57
2018-08-03T22:52:26.793Z,5.10
2018-08-03T22:54:55.457Z,4.40
2018-08-03T22:57:24.117Z,5.10
2018-08-03T22:59:52.771Z,5.40
2018-08-03T23:02:21.458Z,4.80
2018-08-03T23:04:50.310Z,5.00
2018-08-03T23:07:19.072Z,4.83
2018-08-03T23:09:47.922Z,4.83
2018-08-03T23:12:17.323Z,5.07
2018-08-03T23:14:45.943Z,4.60
2018-08-03T23:17:14.614Z,5.63
2018-08-03T23:19:43.379Z,5.87
2018-08-03T23:22:12.111Z,5.03
2018-08-03T23:24:40.748Z,5.87
2018-08-03T23:27:09.441Z,5.50
2018-08-03T23:29:38.031Z,5.30
2018-08-03T23:32:06.729Z,5.60
2018-08-03T23:34:35.359Z,5.40
2018-08-03T23:37:04.111Z,6.10
2018-08-03T23:39:32.729Z,5.40
2018-08-03T23:42:01.357Z,6.00
2018-08-03T23:44:30.080Z,5.70
2018-08-03T23:46:58.686Z,5.73
2018-08-03T23:49:27.372Z,5.60
2018-08-03T23:51:56.033Z,5.97
2018-08-03T23:54:24.311Z,5.73
2018-08-03T23:56:53.012Z,5.43
2018-08-03T23:59:21.666Z,6.20
